Time;durP1;ratioP1;P1;durP2;ratioP2;P2;SDS_P1;SDS_P2;PMS_P1;PMS_P2;Temp;Humidity;BMP_temperature;BMP_pressure;BME280_temperature;BME280_humidity;BME280_pressure;Samples;Min_cycle;Max_cycle;Signal;HPM_P1;HPM_P2
2024/04/01 00:00:57;;;;;;;;;;;;;;;20.62;32.29;97866.69;5040469;28;940;-72
2024/04/01 00:03:22;;;;;;;;;;;;;;;20.78;32.14;97866.72;5040290;28;940;-72
2024/04/01 00:05:52;;;;;;;;;;;;;;;20.72;32.02;97865.63;5058168;28;1065;-72
2024/04/01 00:08:20;;;;;;;;;;;;;;;20.73;31.96;97860.78;4999250;28;1054;-72
2024/04/01 00:10:45;;;;;;;;;;;;;;;20.51;32.51;97864.13;5016254;28;1055;-72
2024/04/01 00:13:11;;;;;;;;;;;;;;;20.51;32.57;97857.69;4957086;29;1192;-72
2024/04/01 00:15:36;;;;;;;;;;;;;;;20.67;32.18;97857.69;4957481;29;953;-72
2024/04/01 00:18:02;;;;;;;;;;;;;;;20.72;31.99;97859.97;4941544;29;980;-72
2024/04/01 00:20:27;;;;;;;;;;;;;;;20.60;32.66;97866.34;4941532;29;1899;-72
2024/04/01 00:22:53;;;;;;;;;;;;;;;20.76;33.00;97860.69;4957489;29;1087;-72
2024/04/01 00:25:18;;;;;;;;;;;;;;;20.67;33.56;97862.53;4941451;29;1088;-72
2024/04/01 00:27:44;;;;;;;;;;;;;;;20.69;34.17;97866.53;4941508;29;1016;-72
2024/04/01 00:30:09;;;;;;;;;;;;;;;20.92;34.07;97862.69;4956956;29;1047;-72
2024/04/01 00:32:35;;;;;;;;;;;;;;;20.95;33.77;97863.84;4937534;29;1028;-72
2024/04/01 00:35:01;;;;;;;;;;;;;;;20.97;33.43;97861.38;4921361;29;992;-72
2024/04/01 00:37:26;;;;;;;;;;;;;;;20.90;33.11;97864.41;4938106;29;1044;-72
2024/04/01 00:39:52;;;;;;;;;;;;;;;21.10;32.72;97859.41;4952639;29;1910;-72
2024/04/01 00:42:17;;;;;;;;;;;;;;;21.01;32.73;97864.91;4941448;29;1065;-72
2024/04/01 00:44:43;;;;;;;;;;;;;;;20.80;32.66;97861.38;4957047;29;927;-72
2024/04/01 00:47:08;;;;;;;;;;;;;;;20.80;32.58;97852.91;4940961;29;1035;-72
2024/04/01 00:49:34;;;;;;;;;;;;;;;20.38;32.94;97817.22;4945246;28;1531;-72
2024/04/01 00:51:59;;;;;;;;;;;;;;;20.75;32.88;97853.44;4982643;28;1282;-72
2024/04/01 00:54:25;;;;;;;;;;;;;;;20.86;32.30;97858.03;4999028;28;1018;-72
2024/04/01 00:56:50;;;;;;;;;;;;;;;20.95;32.39;97861.03;4998847;28;1328;-73
2024/04/01 00:59:16;;;;;;;;;;;;;;;20.88;32.30;97861.19;4998714;28;1910;-72
2024/04/01 01:01:41;;;;;;;;;;;;;;;20.96;32.00;97856.97;4998817;28;994;-72
2024/04/01 01:04:07;;;;;;;;;;;;;;;20.87;31.99;97851.91;4998753;28;1054;-72
2024/04/01 01:06:32;;;;;;;;;;;;;;;20.74;32.54;97857.50;4998789;28;1102;-72
2024/04/01 01:08:58;;;;;;;;;;;;;;;20.89;32.19;97854.31;5001625;28;968;-72
2024/04/01 01:11:23;;;;;;;;;;;;;;;20.83;32.02;97847.59;5056854;28;1005;-72
2024/04/01 01:13:49;;;;;;;;;;;;;;;21.01;31.65;97853.59;5038879;28;924;-72
2024/04/01 01:16:14;;;;;;;;;;;;;;;20.95;31.56;97861.03;5022343;28;1211;-73
2024/04/01 01:18:40;;;;;;;;;;;;;;;20.58;32.30;97843.38;5056592;28;1909;-73
2024/04/01 01:21:05;;;;;;;;;;;;;;;20.61;32.27;97839.66;5022675;28;942;-72
2024/04/01 01:23:32;;;;;;;;;;;;;;;20.60;32.32;97840.91;5038911;28;955;-72
2024/04/01 01:25:57;;;;;;;;;;;;;;;20.71;32.01;97847.06;5022498;28;990;-72
2024/04/01 01:28:23;;;;;;;;;;;;;;;20.66;32.10;97832.69;5038756;28;1063;-72
2024/04/01 01:30:48;;;;;;;;;;;;;;;20.54;32.07;97832.16;5021262;28;938;-72
2024/04/01 01:33:14;;;;;;;;;;;;;;;20.61;32.25;97834.00;5055265;28;1063;-72
2024/04/01 01:35:39;;;;;;;;;;;;;;;20.54;32.30;97829.34;5034235;28;1254;-72
2024/04/01 01:38:05;;;;;;;;;;;;;;;20.73;31.92;97833.31;5001506;28;1042;-72
2024/04/01 01:40:30;;;;;;;;;;;;;;;20.78;31.82;97835.59;5017745;28;1979;-72
2024/04/01 01:42:56;;;;;;;;;;;;;;;20.92;31.44;97842.09;5017424;28;1001;-72
2024/04/01 01:45:22;;;;;;;;;;;;;;;20.83;31.96;97841.94;5017354;28;1006;-73
2024/04/01 01:47:47;;;;;;;;;;;;;;;20.97;32.65;97835.91;5017379;28;951;-72
2024/04/01 01:50:12;;;;;;;;;;;;;;;20.93;33.06;97841.66;5001628;28;1048;-72
2024/04/01 01:52:38;;;;;;;;;;;;;;;20.85;33.73;97836.66;5001118;28;1604;-73
2024/04/01 01:55:04;;;;;;;;;;;;;;;20.71;34.29;97835.75;5017511;28;1071;-72
2024/04/01 01:57:30;;;;;;;;;;;;;;;20.90;33.43;97842.56;5000794;28;998;-72
2024/04/01 01:59:56;;;;;;;;;;;;;;;20.98;32.92;97843.16;5017424;28;1981;-72
2024/04/01 02:02:22;;;;;;;;;;;;;;;20.81;33.08;97848.03;5001011;28;1125;-73
2024/04/01 02:04:47;;;;;;;;;;;;;;;20.95;32.55;97847.69;5001041;28;1071;-73
2024/04/01 02:07:13;;;;;;;;;;;;;;;20.90;32.43;97847.44;5018034;28;1264;-72
2024/04/01 02:09:38;;;;;;;;;;;;;;;20.69;32.76;97838.25;5013869;28;1004;-72
2024/04/01 02:12:10;;;;;;;;;;;;;;;20.63;32.60;97834.38;5014118;28;956;-72
2024/04/01 02:14:38;;;;;;;;;;;;;;;20.90;32.18;97841.78;4981059;28;967;-72
2024/04/01 02:17:04;;;;;;;;;;;;;;;20.68;32.76;97835.88;4997795;28;1536;-72
2024/04/01 02:19:30;;;;;;;;;;;;;;;20.84;32.32;97835.06;4997448;28;1959;-72
2024/04/01 02:21:55;;;;;;;;;;;;;;;20.56;32.76;97834.53;5013806;28;986;-72
2024/04/01 02:24:21;;;;;;;;;;;;;;;20.82;32.24;97835.50;4997632;28;919;-71
2024/04/01 02:26:47;;;;;;;;;;;;;;;20.81;32.11;97840.34;4997256;28;1041;-72
2024/04/01 02:29:12;;;;;;;;;;;;;;;20.82;32.30;97835.50;4997422;28;1430;-72
2024/04/01 02:31:38;;;;;;;;;;;;;;;20.66;32.12;97833.47;5013871;28;1281;-72
2024/04/01 02:34:04;;;;;;;;;;;;;;;20.70;32.24;97825.69;5013957;28;1006;-72
2024/04/01 02:36:29;;;;;;;;;;;;;;;20.50;32.62;97837.09;4997477;28;1269;-72
2024/04/01 02:38:55;;;;;;;;;;;;;;;20.62;32.39;97832.75;4997275;28;1910;-72
2024/04/01 02:41:20;;;;;;;;;;;;;;;20.61;32.49;97836.84;5031001;28;1145;-72
2024/04/01 02:43:46;;;;;;;;;;;;;;;20.81;31.62;97834.69;5018142;28;1036;-72
2024/04/01 02:46:12;;;;;;;;;;;;;;;20.95;31.33;97839.19;5018040;28;961;-72
2024/04/01 02:48:37;;;;;;;;;;;;;;;20.66;32.12;97827.81;4980825;28;1144;-72
2024/04/01 02:51:03;;;;;;;;;;;;;;;20.53;33.33;97829.78;5013658;28;1027;-72
2024/04/01 02:53:28;;;;;;;;;;;;;;;20.74;33.30;97834.88;5013380;28;904;-72
2024/04/01 02:55:54;;;;;;;;;;;;;;;20.98;33.47;97829.81;5013373;28;998;-72
2024/04/01 02:58:20;;;;;;;;;;;;;;;20.93;33.63;97829.53;5016792;28;1965;-72
2024/04/01 03:00:45;;;;;;;;;;;;;;;20.89;33.74;97831.69;5017494;28;1074;-72
2024/04/01 03:03:11;;;;;;;;;;;;;;;21.05;33.01;97831.66;5001071;28;1007;-72
2024/04/01 03:05:38;;;;;;;;;;;;;;;21.08;32.69;97827.94;5017687;28;1098;-72
2024/04/01 03:08:04;;;;;;;;;;;;;;;20.75;33.05;97825.16;5017017;28;1204;-72
2024/04/01 03:10:30;;;;;;;;;;;;;;;20.83;32.66;97836.28;5017278;28;963;-72
2024/04/01 03:12:55;;;;;;;;;;;;;;;20.97;32.25;97827.44;5017277;28;1011;-72
2024/04/01 03:15:21;;;;;;;;;;;;;;;20.87;32.42;97831.34;4997471;28;1301;-72
2024/04/01 03:17:46;;;;;;;;;;;;;;;21.06;31.87;97828.38;5013673;28;1127;-72
2024/04/01 03:20:12;;;;;;;;;;;;;;;20.94;32.10;97837.59;5016652;28;1910;-72
2024/04/01 03:22:39;;;;;;;;;;;;;;;20.99;32.08;97836.28;5016724;28;966;-72
2024/04/01 03:25:04;;;;;;;;;;;;;;;20.91;32.24;97835.66;5018742;28;1471;-72
2024/04/01 03:27:30;;;;;;;;;;;;;;;20.90;32.13;97836.91;5025065;28;1227;-73
2024/04/01 03:29:56;;;;;;;;;;;;;;;20.89;32.20;97840.19;5026969;28;1171;-73
2024/04/01 03:32:21;;;;;;;;;;;;;;;20.92;32.05;97839.28;5009723;28;1286;-73
2024/04/01 03:34:50;;;;;;;;;;;;;;;20.98;31.63;97843.94;5019764;28;1895;-73
2024/04/01 03:37:15;;;;;;;;;;;;;;;20.88;31.80;97841.41;5022289;28;1826;-72
2024/04/01 03:39:42;;;;;;;;;;;;;;;20.75;32.14;97847.78;5019957;28;1907;-73
2024/04/01 03:42:08;;;;;;;;;;;;;;;20.95;31.68;97844.84;5039444;28;1011;-72
2024/04/01 03:44:33;;;;;;;;;;;;;;;20.93;31.89;97849.34;5056320;28;918;-72
2024/04/01 03:46:59;;;;;;;;;;;;;;;20.86;31.72;97846.72;5073275;28;983;-72
2024/04/01 03:49:24;;;;;;;;;;;;;;;20.37;32.52;97839.03;5078581;28;953;-72
2024/04/01 03:51:50;;;;;;;;;;;;;;;20.48;32.25;97841.63;5078469;28;1017;-72
2024/04/01 03:54:16;;;;;;;;;;;;;;;20.57;32.25;97841.78;5056796;28;1621;-72
2024/04/01 03:56:41;;;;;;;;;;;;;;;20.46;32.71;97836.38;5059384;28;1353;-72
2024/04/01 03:59:08;;;;;;;;;;;;;;;20.73;33.08;97850.28;5060307;28;1918;-72
2024/04/01 04:01:34;;;;;;;;;;;;;;;20.84;33.13;97849.19;5043827;28;932;-72
2024/04/01 04:03:59;;;;;;;;;;;;;;;20.74;33.92;97845.41;5015790;28;1007;-72
2024/04/01 04:06:25;;;;;;;;;;;;;;;21.08;33.48;97853.38;5015927;28;937;-72
2024/04/01 04:08:50;;;;;;;;;;;;;;;20.81;33.92;97853.69;4978647;28;1520;-72
2024/04/01 04:11:16;;;;;;;;;;;;;;;21.13;33.04;97855.69;4964169;28;1268;-72
2024/04/01 04:13:41;;;;;;;;;;;;;;;20.90;33.25;97858.75;4980378;28;1191;-72
2024/04/01 04:16:07;;;;;;;;;;;;;;;20.95;32.51;97861.03;4996054;28;981;-73
2024/04/01 04:18:33;;;;;;;;;;;;;;;20.74;32.80;97860.34;4963893;28;1906;-73
2024/04/01 04:20:58;;;;;;;;;;;;;;;20.94;32.30;97848.13;4979806;28;914;-72
2024/04/01 04:23:24;;;;;;;;;;;;;;;20.93;32.58;97861.44;4989209;28;1345;-72
2024/04/01 04:25:49;;;;;;;;;;;;;;;20.84;32.48;97866.16;4984183;28;1706;-72
2024/04/01 04:28:15;;;;;;;;;;;;;;;21.06;31.77;97867.19;4975752;28;1517;-72
2024/04/01 04:30:40;;;;;;;;;;;;;;;20.67;32.50;97863.31;4976274;28;1018;-72
2024/04/01 04:33:06;;;;;;;;;;;;;;;20.70;32.59;97859.63;4956838;29;994;-72
2024/04/01 04:35:31;;;;;;;;;;;;;;;20.64;32.46;97858.56;4943206;29;973;-72
2024/04/01 04:37:57;;;;;;;;;;;;;;;20.94;31.93;97870.75;4937982;29;1117;-72
2024/04/01 04:40:24;;;;;;;;;;;;;;;20.51;32.54;97860.50;4937896;29;1923;-73
2024/04/01 04:42:50;;;;;;;;;;;;;;;20.73;32.42;97860.78;4936674;29;1526;-73
2024/04/01 04:45:16;;;;;;;;;;;;;;;20.83;32.03;97864.56;4942998;28;1304;-72
2024/04/01 04:47:42;;;;;;;;;;;;;;;20.79;31.92;97865.47;4995659;28;1007;-72
2024/04/01 04:50:08;;;;;;;;;;;;;;;20.51;32.38;97866.16;4980057;28;980;-72
2024/04/01 04:52:33;;;;;;;;;;;;;;;20.79;32.09;97870.31;4979380;28;1012;-72
2024/04/01 04:54:59;;;;;;;;;;;;;;;20.74;31.75;97868.81;4993806;28;1493;-73
2024/04/01 04:57:25;;;;;;;;;;;;;;;20.62;32.05;97866.69;4979524;28;1126;-73
2024/04/01 04:59:50;;;;;;;;;;;;;;;20.47;32.37;97876.78;4991943;28;1977;-72
2024/04/01 05:02:16;;;;;;;;;;;;;;;20.45;32.27;97862.25;5035031;28;971;-72
2024/04/01 05:04:42;;;;;;;;;;;;;;;20.50;32.35;97864.56;5066644;28;1136;-73
2024/04/01 05:07:08;;;;;;;;;;;;;;;20.69;32.04;97871.38;5076923;28;1004;-72
2024/04/01 05:09:34;;;;;;;;;;;;;;;20.58;32.06;97871.66;5050089;28;1626;-72
2024/04/01 05:12:00;;;;;;;;;;;;;;;20.30;32.81;97873.88;5037312;28;943;-72
2024/04/01 05:14:26;;;;;;;;;;;;;;;20.60;33.13;97880.47;5019147;28;1171;-72
2024/04/01 05:16:52;;;;;;;;;;;;;;;20.68;33.46;97872.63;5019378;28;982;-72
2024/04/01 05:19:21;;;;;;;;;;;;;;;20.74;33.36;97874.47;5002317;28;1907;-72
2024/04/01 05:21:47;;;;;;;;;;;;;;;20.73;33.58;97867.25;5001856;28;1036;-72
2024/04/01 05:24:12;;;;;;;;;;;;;;;20.91;33.66;97877.28;5024867;28;1467;-72
2024/04/01 05:26:38;;;;;;;;;;;;;;;20.62;34.13;97875.16;5076266;28;962;-72
2024/04/01 05:29:03;;;;;;;;;;;;;;;21.12;32.87;97873.09;5042319;28;944;-72
2024/04/01 05:31:29;;;;;;;;;;;;;;;20.80;33.14;97867.03;5042189;28;962;-72
2024/04/01 05:33:56;;;;;;;;;;;;;;;20.89;32.81;97874.13;5041880;28;934;-72
2024/04/01 05:36:23;;;;;;;;;;;;;;;20.53;33.13;97875.00;5041699;28;1454;-72
2024/04/01 05:38:49;;;;;;;;;;;;;;;20.93;32.32;97871.97;5054583;28;1996;-73
2024/04/01 05:41:14;;;;;;;;;;;;;;;20.98;32.19;97877.09;5043854;28;1395;-72
2024/04/01 05:43:40;;;;;;;;;;;;;;;20.98;32.10;97877.09;5076411;28;972;-72
2024/04/01 05:46:06;;;;;;;;;;;;;;;20.90;32.28;97870.06;5074327;28;1378;-72
2024/04/01 05:48:31;;;;;;;;;;;;;;;20.80;32.36;97877.56;5058506;28;903;-72
2024/04/01 05:50:57;;;;;;;;;;;;;;;21.12;31.96;97875.94;5076279;28;946;-72
2024/04/01 05:53:23;;;;;;;;;;;;;;;20.93;32.40;97869.94;5058203;28;1010;-73
2024/04/01 05:55:48;;;;;;;;;;;;;;;21.00;32.18;97880.28;5058346;28;1033;-73
2024/04/01 05:58:14;;;;;;;;;;;;;;;20.78;32.45;97869.53;5074048;28;1424;-72
2024/04/01 06:00:39;;;;;;;;;;;;;;;20.86;32.56;97867.31;5024109;28;1906;-72
2024/04/01 06:03:05;;;;;;;;;;;;;;;20.85;32.44;97876.25;5041470;28;1309;-72
2024/04/01 06:05:31;;;;;;;;;;;;;;;21.20;31.74;97878.13;5057799;28;959;-72
2024/04/01 06:07:56;;;;;;;;;;;;;;;21.04;32.03;97878.16;5076029;28;988;-72
2024/04/01 06:10:22;;;;;;;;;;;;;;;20.99;32.20;97882.31;5040964;28;1388;-73
2024/04/01 06:12:48;;;;;;;;;;;;;;;21.02;32.09;97881.41;5061859;28;1678;-72
2024/04/01 06:15:13;;;;;;;;;;;;;;;20.80;32.23;97877.56;5054500;28;1008;-72
2024/04/01 06:17:39;;;;;;;;;;;;;;;20.80;32.58;97881.19;5055938;28;1067;-72
2024/04/01 06:20:05;;;;;;;;;;;;;;;20.84;32.55;97878.28;5046051;28;1981;-72
2024/04/01 06:22:31;;;;;;;;;;;;;;;20.93;32.07;97886.13;5017062;28;1451;-72
2024/04/01 06:24:56;;;;;;;;;;;;;;;20.94;32.05;97882.06;5000489;28;1237;-73
2024/04/01 06:27:22;;;;;;;;;;;;;;;20.66;32.69;97887.19;5033620;28;1012;-72
2024/04/01 06:29:47;;;;;;;;;;;;;;;20.67;32.56;97885.94;4984545;28;1249;-72
2024/04/01 06:32:13;;;;;;;;;;;;;;;20.69;32.14;97882.69;5020501;28;1046;-72
2024/04/01 06:34:38;;;;;;;;;;;;;;;20.97;32.13;97898.94;5037124;28;1457;-72
2024/04/01 06:37:04;;;;;;;;;;;;;;;20.67;32.65;97891.59;5037366;28;1200;-72
2024/04/01 06:39:29;;;;;;;;;;;;;;;20.78;32.69;97897.03;5034895;28;1902;-73
2024/04/01 06:41:55;;;;;;;;;;;;;;;20.81;32.39;97896.91;4991547;28;1426;-72
2024/04/01 06:44:21;;;;;;;;;;;;;;;20.70;32.79;97902.03;4981560;28;1056;-72
2024/04/01 06:46:48;;;;;;;;;;;;;;;20.75;32.75;97904.34;4997884;28;995;-72
2024/04/01 06:49:14;;;;;;;;;;;;;;;20.80;32.54;97906.63;4997782;28;1270;-72
2024/04/01 06:51:39;;;;;;;;;;;;;;;20.77;32.40;97907.50;4997956;28;1110;-72
2024/04/01 06:54:05;;;;;;;;;;;;;;;20.59;32.87;97901.50;4997788;28;1200;-72
2024/04/01 06:56:31;;;;;;;;;;;;;;;20.41;33.18;97909.56;5007266;28;1411;-72
2024/04/01 06:58:57;;;;;;;;;;;;;;;20.73;32.55;97912.47;5020816;28;2299;-73
2024/04/01 07:01:22;;;;;;;;;;;;;;;20.58;32.67;97908.41;5017273;28;1033;-72
2024/04/01 07:03:48;;;;;;;;;;;;;;;20.69;32.66;97906.09;5017020;28;893;-72
2024/04/01 07:06:13;;;;;;;;;;;;;;;20.69;32.24;97906.09;4968333;28;1012;-72
2024/04/01 07:08:39;;;;;;;;;;;;;;;20.70;32.28;97902.03;5000794;28;1343;-72
2024/04/01 07:11:04;;;;;;;;;;;;;;;20.70;32.35;97902.03;5003759;28;1006;-72
2024/04/01 07:13:30;;;;;;;;;;;;;;;20.87;31.96;97899.19;5020688;28;970;-72
2024/04/01 07:15:56;;;;;;;;;;;;;;;20.87;31.99;97896.38;5020372;28;972;-72
2024/04/01 07:18:22;;;;;;;;;;;;;;;20.91;32.16;97894.25;5003799;28;1374;-72
2024/04/01 07:20:48;;;;;;;;;;;;;;;20.92;32.24;97890.19;5003985;28;1976;-73
2024/04/01 07:23:13;;;;;;;;;;;;;;;20.78;32.53;97903.47;5004079;28;1111;-73
2024/04/01 07:25:39;;;;;;;;;;;;;;;20.80;32.58;97900.97;5017839;28;1306;-72
2024/04/01 07:28:05;;;;;;;;;;;;;;;20.88;32.17;97900.78;5019868;28;1037;-72
2024/04/01 07:30:31;;;;;;;;;;;;;;;20.97;32.15;97898.13;4996850;28;972;-72
2024/04/01 07:32:57;;;;;;;;;;;;;;;20.49;32.84;97913.88;5010036;28;997;-73
2024/04/01 07:35:22;;;;;;;;;;;;;;;20.78;32.62;97903.47;5036288;28;1004;-72
2024/04/01 07:37:48;;;;;;;;;;;;;;;20.71;32.50;97912.09;5019996;28;1031;-72
2024/04/01 07:40:13;;;;;;;;;;;;;;;20.95;32.02;97911.94;5019188;28;1910;-72
2024/04/01 07:42:45;;;;;;;;;;;;;;;20.99;31.96;97915.47;5002880;28;1526;-72
2024/04/01 07:45:13;;;;;;;;;;;;;;;20.67;32.74;97907.78;5020744;28;997;-72
2024/04/01 07:47:39;;;;;;;;;;;;;;;20.58;32.85;97914.06;5018270;28;1279;-72
2024/04/01 07:50:05;;;;;;;;;;;;;;;20.68;32.71;97907.34;5019954;28;1426;-72
2024/04/01 07:52:31;;;;;;;;;;;;;;;20.86;32.38;97906.09;5003630;28;945;-72
2024/04/01 07:54:57;;;;;;;;;;;;;;;20.81;32.65;97908.22;5019722;28;1277;-72
2024/04/01 07:57:30;;;;;;;;;;;;;;;20.83;32.56;97904.97;5019405;28;1036;-73
2024/04/01 07:59:55;;;;;;;;;;;;;;;20.72;32.43;97902.38;4973726;28;1910;-72
2024/04/01 08:02:21;;;;;;;;;;;;;;;20.39;33.39;97895.09;4999654;28;1741;-72
2024/04/01 08:04:46;;;;;;;;;;;;;;;20.36;33.35;97898.78;5014991;28;992;-72
2024/04/01 08:07:12;;;;;;;;;;;;;;;20.89;32.14;97902.41;5016184;28;983;-72
2024/04/01 08:09:37;;;;;;;;;;;;;;;20.50;32.70;97895.66;4999842;28;983;-73
2024/04/01 08:12:03;;;;;;;;;;;;;;;20.65;32.61;97894.09;4999555;28;999;-73
2024/04/01 08:14:28;;;;;;;;;;;;;;;20.72;32.56;97893.09;4999747;28;1070;-72
2024/04/01 08:16:54;;;;;;;;;;;;;;;20.69;32.68;97897.63;4999355;28;1068;-72
2024/04/01 08:19:20;;;;;;;;;;;;;;;20.46;32.87;97892.09;4961500;28;1910;-72
2024/04/01 08:21:45;;;;;;;;;;;;;;;20.41;33.18;97889.78;4960370;28;1058;-72
2024/04/01 08:24:11;;;;;;;;;;;;;;;20.27;33.52;97897.38;4960733;28;1288;-72
2024/04/01 08:26:36;;;;;;;;;;;;;;;20.65;32.60;97893.28;4976826;28;1027;-72
2024/04/01 08:29:02;;;;;;;;;;;;;;;20.91;32.28;97894.25;4976738;28;943;-72
2024/04/01 08:31:27;;;;;;;;;;;;;;;20.86;32.47;97897.63;4958282;28;1410;-72
2024/04/01 08:33:53;;;;;;;;;;;;;;;20.96;32.12;97897.34;4976912;28;1029;-72
2024/04/01 08:36:19;;;;;;;;;;;;;;;20.67;32.79;97890.81;4979326;28;1483;-72
2024/04/01 08:38:44;;;;;;;;;;;;;;;20.51;33.29;97888.75;4999230;28;1922;-72
2024/04/01 08:41:21;;;;;;;;;;;;;;;20.42;33.16;97892.19;4982944;28;948;-73
2024/04/01 08:43:47;;;;;;;;;;;;;;;20.39;33.26;97892.28;4998859;28;1027;-72
2024/04/01 08:46:13;;;;;;;;;;;;;;;20.67;32.80;97885.94;4998943;28;946;-73
2024/04/01 08:48:39;;;;;;;;;;;;;;;20.74;32.42;97887.81;4999041;28;968;-72
2024/04/01 08:51:05;;;;;;;;;;;;;;;20.87;32.36;97894.34;4985459;28;1572;-72
2024/04/01 08:53:49;;;;;;;;;;;;;;;20.71;32.61;97875.34;4995564;28;1660;-72
2024/04/01 08:56:15;;;;;;;;;;;;;;;20.48;33.06;97884.81;5013106;28;985;-72
2024/04/01 08:58:41;;;;;;;;;;;;;;;20.53;33.28;97889.13;5039412;28;1910;-72
2024/04/01 09:01:06;;;;;;;;;;;;;;;20.54;33.26;97877.38;5057000;28;908;-72
2024/04/01 09:03:32;;;;;;;;;;;;;;;20.67;32.84;97885.94;5057137;28;1062;-72
2024/04/01 09:05:58;;;;;;;;;;;;;;;20.64;32.93;97881.19;5013394;28;1324;-72
2024/04/01 09:08:24;;;;;;;;;;;;;;;20.61;32.84;97882.06;5014065;28;1488;-73
2024/04/01 09:10:50;;;;;;;;;;;;;;;20.61;33.17;97893.38;5034792;28;919;-73
2024/04/01 09:13:17;;;;;;;;;;;;;;;20.60;32.81;97891.78;5034818;28;938;-72
2024/04/01 09:15:48;;;;;;;;;;;;;;;20.44;33.51;97894.56;5133796;27;1385;-72
2024/04/01 09:18:14;;;;;;;;;;;;;;;20.84;32.92;97883.13;5115645;28;1498;-72
2024/04/01 09:20:42;;;;;;;;;;;;;;;20.85;32.54;97885.50;5071614;28;1453;-72
2024/04/01 09:23:08;;;;;;;;;;;;;;;20.90;32.80;97887.81;5074472;28;985;-72
2024/04/01 09:25:33;;;;;;;;;;;;;;;20.76;32.99;97877.66;5057974;28;1149;-72
2024/04/01 09:27:59;;;;;;;;;;;;;;;20.75;33.10;97884.53;5074710;28;1017;-72
2024/04/01 09:30:24;;;;;;;;;;;;;;;20.54;33.58;97883.03;5074566;28;1065;-72
2024/04/01 09:32:50;;;;;;;;;;;;;;;20.89;32.92;97879.78;5091229;28;1007;-72
2024/04/01 09:35:15;;;;;;;;;;;;;;;20.65;33.16;97871.47;5090058;28;2024;-72
2024/04/01 09:37:41;;;;;;;;;;;;;;;20.55;33.55;97883.84;5091060;28;1059;-72
2024/04/01 09:40:07;;;;;;;;;;;;;;;20.65;33.34;97877.13;5074407;28;1137;-72
2024/04/01 09:42:33;;;;;;;;;;;;;;;20.86;33.05;97875.78;5074114;28;1143;-72
2024/04/01 09:44:59;;;;;;;;;;;;;;;20.90;33.05;97870.06;5074435;28;883;-72
2024/04/01 09:47:25;;;;;;;;;;;;;;;20.97;32.78;97872.69;5058048;28;951;-72
2024/04/01 09:49:51;;;;;;;;;;;;;;;20.93;32.78;97871.97;5056130;28;1322;-72
2024/04/01 09:52:17;;;;;;;;;;;;;;;20.78;33.23;97880.84;5106316;28;986;-72
2024/04/01 09:54:43;;;;;;;;;;;;;;;20.76;33.16;97879.69;5097634;28;1913;-72
2024/04/01 09:57:31;;;;;;;;;;;;;;;20.62;33.28;97872.34;5098891;28;1180;-72
2024/04/01 10:00:15;;;;;;;;;;;;;;;21.01;32.55;97871.34;5070632;28;984;-72
2024/04/01 10:02:59;;;;;;;;;;;;;;;20.85;32.92;97862.88;5054054;28;1077;-72
2024/04/01 10:05:37;;;;;;;;;;;;;;;20.66;33.15;97833.47;5051313;28;1414;-71
2024/04/01 10:08:02;;;;;;;;;;;;;;;20.79;33.08;97859.81;5013897;28;1412;-72
2024/04/01 10:10:46;;;;;;;;;;;;;;;20.85;32.96;97859.28;5030822;28;997;-72
2024/04/01 10:13:19;;;;;;;;;;;;;;;20.84;33.14;97854.84;5030440;28;974;-72
2024/04/01 10:16:03;;;;;;;;;;;;;;;20.55;33.34;97849.91;5029957;28;1968;-72
2024/04/01 10:18:46;;;;;;;;;;;;;;;20.52;33.74;97845.13;5030511;28;1021;-72
2024/04/01 10:21:30;;;;;;;;;;;;;;;20.58;33.33;97849.03;5040339;28;1478;-72
2024/04/01 10:24:14;;;;;;;;;;;;;;;20.88;32.96;97839.38;5069847;28;978;-72
2024/04/01 10:26:40;;;;;;;;;;;;;;;20.80;33.08;97852.91;5043300;28;1002;-72
2024/04/01 10:29:05;;;;;;;;;;;;;;;20.65;33.44;97843.19;5039975;28;1056;-72
2024/04/01 10:31:43;;;;;;;;;;;;;;;20.84;33.32;97840.72;5056772;28;1018;-72
2024/04/01 10:34:27;;;;;;;;;;;;;;;20.69;33.42;97843.91;5038634;28;1969;-72
2024/04/01 10:37:14;;;;;;;;;;;;;;;20.78;33.58;97829.94;5068643;28;1065;-72
2024/04/01 10:39:52;;;;;;;;;;;;;;;20.83;33.48;97836.28;5084551;28;946;-72
2024/04/01 10:42:24;;;;;;;;;;;;;;;20.70;33.68;97833.38;5099241;28;1418;-72
2024/04/01 10:44:50;;;;;;;;;;;;;;;20.85;33.28;97828.97;5119336;28;986;-72
2024/04/01 10:47:24;;;;;;;;;;;;;;;20.85;33.24;97825.34;5119520;28;980;-72
2024/04/01 10:49:56;;;;;;;;;;;;;;;20.86;33.32;97819.22;5118185;28;1446;-73
2024/04/01 10:52:31;;;;;;;;;;;;;;;20.57;33.80;97819.16;5119345;28;933;-72
2024/04/01 10:55:00;;;;;;;;;;;;;;;20.88;33.34;97815.94;5100986;28;1909;-72
2024/04/01 10:57:41;;;;;;;;;;;;;;;20.72;33.26;97814.72;5101061;28;1161;-72
2024/04/01 11:00:06;;;;;;;;;;;;;;;20.74;33.57;97806.63;5101010;28;932;-72
2024/04/01 11:02:32;;;;;;;;;;;;;;;20.43;34.32;97819.50;5118841;28;951;-72
2024/04/01 11:05:13;;;;;;;;;;;;;;;20.84;33.56;97809.63;5117659;28;1359;-72
2024/04/01 11:07:52;;;;;;;;;;;;;;;20.84;33.59;97803.97;5118772;28;907;-72
2024/04/01 11:10:44;;;;;;;;;;;;;;;20.66;33.45;97802.38;5083827;28;1311;-72
2024/04/01 11:13:19;;;;;;;;;;;;;;;20.98;33.34;97789.41;5055783;28;1074;-73
2024/04/01 11:15:45;;;;;;;;;;;;;;;20.87;33.37;97786.88;5022527;28;1906;-72
2024/04/01 11:18:29;;;;;;;;;;;;;;;21.00;33.17;97789.78;5037952;28;1475;-72
2024/04/01 11:21:00;;;;;;;;;;;;;;;20.81;33.50;97785.84;5055900;28;949;-72
2024/04/01 11:23:26;;;;;;;;;;;;;;;20.70;33.85;97786.13;5055827;28;980;-72
2024/04/01 11:26:10;;;;;;;;;;;;;;;20.90;33.45;97779.56;5055831;28;987;-71
2024/04/01 11:28:38;;;;;;;;;;;;;;;20.88;33.33;97782.00;5055672;28;988;-72
2024/04/01 11:31:14;;;;;;;;;;;;;;;20.96;33.17;97783.41;5055412;28;1032;-72
2024/04/01 11:33:49;;;;;;;;;;;;;;;20.74;33.49;97778.34;4994869;28;2256;-72
2024/04/01 11:36:15;;;;;;;;;;;;;;;20.13;34.66;97770.56;4990954;28;1393;-72
2024/04/01 11:38:43;;;;;;;;;;;;;;;20.78;33.61;97773.41;5011132;28;1039;-72
2024/04/01 11:41:09;;;;;;;;;;;;;;;20.80;33.58;97765.25;4996332;28;1072;-72
2024/04/01 11:43:35;;;;;;;;;;;;;;;20.88;33.39;97759.38;5012338;28;1065;-72
2024/04/01 11:46:00;;;;;;;;;;;;;;;21.03;32.99;97766.25;4995779;28;1026;-72
2024/04/01 11:48:26;;;;;;;;;;;;;;;20.72;33.75;97763.84;5012064;28;1396;-72
2024/04/01 11:50:52;;;;;;;;;;;;;;;20.91;33.19;97761.34;5025873;28;1402;-72
2024/04/01 11:53:18;;;;;;;;;;;;;;;21.05;33.19;97750.41;5015446;28;1006;-72
2024/04/01 11:55:53;;;;;;;;;;;;;;;21.01;33.33;97746.88;5015391;28;1907;-73
2024/04/01 11:58:18;;;;;;;;;;;;;;;20.86;33.39;97745.69;5015303;28;1002;-72
2024/04/01 12:00:56;;;;;;;;;;;;;;;21.04;33.08;97748.03;5033083;28;1414;-72
2024/04/01 12:03:22;;;;;;;;;;;;;;;20.94;33.19;97746.31;5018725;28;968;-72
2024/04/01 12:05:49;;;;;;;;;;;;;;;20.99;32.99;97738.06;5054538;28;995;-72
2024/04/01 12:08:15;;;;;;;;;;;;;;;20.81;33.39;97741.38;5038290;28;1036;-72
2024/04/01 12:10:42;;;;;;;;;;;;;;;20.71;33.79;97733.97;5054895;28;905;-72
2024/04/01 12:13:09;;;;;;;;;;;;;;;20.94;33.31;97735.78;5054841;28;976;-72
2024/04/01 12:15:34;;;;;;;;;;;;;;;20.99;33.05;97737.28;4994027;28;1968;-72
2024/04/01 12:18:00;;;;;;;;;;;;;;;20.99;33.14;97720.31;4978788;28;1304;-72
2024/04/01 12:20:31;;;;;;;;;;;;;;;21.01;33.05;97729.13;4979157;28;1105;-72
2024/04/01 12:23:02;;;;;;;;;;;;;;;20.67;33.66;97716.31;4995226;28;1041;-72
2024/04/01 12:25:28;;;;;;;;;;;;;;;20.79;33.47;97711.97;4995113;28;1124;-72
2024/04/01 12:27:53;;;;;;;;;;;;;;;20.63;33.61;97715.66;4995405;28;1052;-73
2024/04/01 12:30:19;;;;;;;;;;;;;;;20.77;33.68;97701.09;4993512;28;1381;-73
2024/04/01 12:32:46;;;;;;;;;;;;;;;20.76;33.55;97702.34;5013809;28;1475;-72
2024/04/01 12:35:12;;;;;;;;;;;;;;;20.50;33.94;97698.59;4998395;28;1902;-72
2024/04/01 12:37:40;;;;;;;;;;;;;;;20.84;33.34;97690.84;5015085;28;1032;-72
2024/04/01 12:40:06;;;;;;;;;;;;;;;20.77;33.68;97689.78;5017883;28;1154;-72
2024/04/01 12:42:32;;;;;;;;;;;;;;;20.73;33.84;97686.28;5017719;28;1081;-72
2024/04/01 12:44:59;;;;;;;;;;;;;;;20.72;33.63;97684.66;5015963;28;1481;-73
2024/04/01 12:47:26;;;;;;;;;;;;;;;20.74;33.49;97682.22;5033215;28;1468;-72
2024/04/01 12:49:51;;;;;;;;;;;;;;;20.89;33.45;97673.31;5017522;28;988;-72
2024/04/01 12:52:18;;;;;;;;;;;;;;;20.74;33.32;97665.25;5030593;28;1605;-72
2024/04/01 12:54:47;;;;;;;;;;;;;;;20.77;33.34;97670.00;5077510;28;1906;-71
2024/04/01 12:57:39;;;;;;;;;;;;;;;20.48;34.05;97667.19;5094542;28;1077;-72
2024/04/01 13:00:05;;;;;;;;;;;;;;;20.66;33.64;97663.84;5092203;28;1055;-72